Atlantic Rainbow — 3FBT3 — position and weather

sailwx.info

Track history (hours):
 
Tides and Currents Weather Stations Pressure Air Temp Water Temp Dewpoint Dewpoint Depression Visibility Wind Speed Wind Dir Waves Ship Positions

Atlantic Rainbow

Last reported at 2018-Apr-14 20:27 UTC. Time now 2018-Apr-26 10:57 UTC.
Position N 37°46' W 125°09'.
Warning: this ship's position is 11 days out of date.

Length 170 m; draft 9.6 m.

Type: Cargo ship. MMSI: 373796000.

Date/timePositionNaut miles runAvg speedWind from/ knotsBaromVisibWave heightAir tempDewpointWater temp
2018-Apr-14 20:27N 37°46' W 125°09'3211.7
2018-Apr-14 17:41N 37°42' W 124°28'211.3
2018-Apr-14 17:30N 37°41' W 124°26'611.3
2018-Apr-14 17:00N 37°41' W 124°18'611.1
2018-Apr-14 16:30N 37°40' W 124°11'611.1
2018-Apr-14 16:00N 37°40' W 124°05'611.0
2018-Apr-14 15:30N 37°39' W 123°58'711.1
2018-Apr-14 14:54N 37°38' W 123°49'410.7
2018-Apr-14 14:30N 37°38' W 123°44'510.6
2018-Apr-14 14:00N 37°37' W 123°37'511.0
2018-Apr-14 13:30N 37°36' W 123°30'611.0
2018-Apr-14 12:58N 37°36' W 123°23'610.8
2018-Apr-14 12:25N 37°35' W 123°16'510.9
2018-Apr-14 12:00N 37°35' W 123°10'510.4
2018-Apr-14 11:30N 37°34' W 123°03'612.1
2018-Apr-14 11:00N 37°38' W 122°57'612.2
2018-Apr-14 10:30N 37°41' W 122°50'611.5
2018-Apr-14 10:00N 37°43' W 122°44'5 9.2
2018-Apr-14 09:30N 37°46' W 122°39'612.7
2018-Apr-14 09:00N 37°48' W 122°32'613.0
2018-Apr-14 08:30N 37°48' W 122°23'611.3
2018-Apr-14 08:01N 37°43' W 122°21'1 1.0
2018-Apr-14 07:30N 37°43' W 122°20'0 0.0
2018-Apr-14 07:00N 37°42' W 122°20'0 0.0
2018-Apr-14 06:30N 37°42' W 122°20'0 0.0
2018-Apr-14 06:00N 37°42' W 122°20'0 0.0
2018-Apr-14 05:30N 37°42' W 122°20'0 0.1
2018-Apr-14 05:00N 37°42' W 122°20'0 0.0
2018-Apr-14 04:30N 37°43' W 122°20'0 0.1
2018-Apr-14 04:00N 37°42' W 122°20'0 0.0
2018-Apr-14 03:30N 37°42' W 122°20'0 0.0
2018-Apr-14 02:57N 37°43' W 122°20'0 0.0
2018-Apr-14 02:30N 37°43' W 122°20'0 0.0
2018-Apr-14 01:57N 37°43' W 122°20'0 0.2
2018-Apr-14 01:30N 37°43' W 122°20'0 0.1
2018-Apr-14 01:00N 37°43' W 122°20'0 0.2
2018-Apr-14 00:21N 37°43' W 122°20'0 0.0
2018-Apr-14 00:00N 37°43' W 122°20'0 0.1
2018-Apr-13 23:30N 37°43' W 122°20'4 7.9
2018-Apr-13 23:00N 37°46' W 122°22'611.2
2018-Apr-13 22:30N 37°52' W 122°25'713.2
2018-Apr-13 22:00N 37°58' W 122°26'713.0
2018-Apr-13 21:30N 38°03' W 122°21'611.8
2018-Apr-13 21:00N 38°04' W 122°13'5 9.3
2018-Apr-13 20:30N 38°02' W 122°07'4 6.8
2018-Apr-13 19:54N 38°04' W 122°03'4 8.7
2018-Apr-13 19:29N 38°04' W 121°58'4 8.3
2018-Apr-13 19:00N 38°03' W 121°53'3 6.3
2018-Apr-13 18:30N 38°02' W 121°49'  
Track history (hours):
 
Tides and Currents Weather Stations Pressure Air Temp Water Temp Dewpoint Dewpoint Depression Visibility Wind Speed Wind Dir Waves Ship Positions

Atlantic Rainbow

Last reported at 2018-Apr-14 20:27 UTC. Time now 2018-Apr-26 10:57 UTC.
Position N 37°46' W 125°09'.
Warning: this ship's position is 11 days out of date.

Length 170 m; draft 9.6 m.

Type: Cargo ship. MMSI: 373796000.

Date/timePositionNaut miles runAvg speedWind from/ knotsBaromVisibWave heightAir tempDewpointWater temp
2018-Apr-14 20:27N 37°46' W 125°09'3211.7
2018-Apr-14 17:41N 37°42' W 124°28'211.3
2018-Apr-14 17:30N 37°41' W 124°26'611.3
2018-Apr-14 17:00N 37°41' W 124°18'611.1
2018-Apr-14 16:30N 37°40' W 124°11'611.1
2018-Apr-14 16:00N 37°40' W 124°05'611.0
2018-Apr-14 15:30N 37°39' W 123°58'711.1
2018-Apr-14 14:54N 37°38' W 123°49'410.7
2018-Apr-14 14:30N 37°38' W 123°44'510.6
2018-Apr-14 14:00N 37°37' W 123°37'511.0
2018-Apr-14 13:30N 37°36' W 123°30'611.0
2018-Apr-14 12:58N 37°36' W 123°23'610.8
2018-Apr-14 12:25N 37°35' W 123°16'510.9
2018-Apr-14 12:00N 37°35' W 123°10'510.4
2018-Apr-14 11:30N 37°34' W 123°03'612.1
2018-Apr-14 11:00N 37°38' W 122°57'612.2
2018-Apr-14 10:30N 37°41' W 122°50'611.5
2018-Apr-14 10:00N 37°43' W 122°44'5 9.2
2018-Apr-14 09:30N 37°46' W 122°39'612.7
2018-Apr-14 09:00N 37°48' W 122°32'613.0
2018-Apr-14 08:30N 37°48' W 122°23'611.3
2018-Apr-14 08:01N 37°43' W 122°21'1 1.0
2018-Apr-14 07:30N 37°43' W 122°20'0 0.0
2018-Apr-14 07:00N 37°42' W 122°20'0 0.0
2018-Apr-14 06:30N 37°42' W 122°20'0 0.0
2018-Apr-14 06:00N 37°42' W 122°20'0 0.0
2018-Apr-14 05:30N 37°42' W 122°20'0 0.1
2018-Apr-14 05:00N 37°42' W 122°20'0 0.0
2018-Apr-14 04:30N 37°43' W 122°20'0 0.1
2018-Apr-14 04:00N 37°42' W 122°20'0 0.0
2018-Apr-14 03:30N 37°42' W 122°20'0 0.0
2018-Apr-14 02:57N 37°43' W 122°20'0 0.0
2018-Apr-14 02:30N 37°43' W 122°20'0 0.0
2018-Apr-14 01:57N 37°43' W 122°20'0 0.2
2018-Apr-14 01:30N 37°43' W 122°20'0 0.1
2018-Apr-14 01:00N 37°43' W 122°20'0 0.2
2018-Apr-14 00:21N 37°43' W 122°20'0 0.0
2018-Apr-14 00:00N 37°43' W 122°20'0 0.1
2018-Apr-13 23:30N 37°43' W 122°20'4 7.9
2018-Apr-13 23:00N 37°46' W 122°22'611.2
2018-Apr-13 22:30N 37°52' W 122°25'713.2
2018-Apr-13 22:00N 37°58' W 122°26'713.0
2018-Apr-13 21:30N 38°03' W 122°21'611.8
2018-Apr-13 21:00N 38°04' W 122°13'5 9.3
2018-Apr-13 20:30N 38°02' W 122°07'4 6.8
2018-Apr-13 19:54N 38°04' W 122°03'4 8.7
2018-Apr-13 19:29N 38°04' W 121°58'4 8.3
2018-Apr-13 19:00N 38°03' W 121°53'3 6.3
2018-Apr-13 18:30N 38°02' W 121°49'  

Dump ship's entire track history